NCAR-RAP Real-Time Weather Data

Output produced by METARs form (26 May 2022  07:55 UTC)
found at http://weather.rap.ucar.edu/surface/
 
VDSR 260730Z 23009KT 9999 SCT020 FEW017CB SCT040 32/24 Q1004 CB:SW
VDSR 260700Z 24006KT 210V270 9999 SCT020 SCT040 32/26 Q1004
VDSR 260630Z 24005KT 200V270 9999 SCT040 31/26 Q1005
VDSR 260600Z 24005KT 210V270 9999 SCT040 31/26 Q1005
VDSR 260530Z 24005KT 9999 SCT040 31/26 Q1006
VDSR 260500Z 23003KT 9999 SCT040 30/26 Q1006
VDSR 260430Z 23004KT 140V260 9999 SCT040 30/26 Q1006
VDSR 260400Z VRB03KT 9999 SCT040 30/26 Q1007
VDSR 260330Z VRB03KT 9999 SCT040 29/26 Q1007
VDSR 260300Z VRB01KT 9000 SCT015 29/26 Q1007
VDSR 260230Z VRB02KT 9000 SCT015 29/26 Q1007
VDSR 260200Z VRB02KT 9000 SCT015 28/26 Q1007
VDSR 260130Z VRB02KT 9000 SCT015 27/26 Q1007
VDSR 260100Z VRB02KT 9000 SCT015 27/25 Q1007
VDSR 260030Z 25003KT 9000 SCT015 26/25 Q1006
VDSR 260000Z 26003KT 9000 SCT015 26/25 Q1006
VDSR 252330Z 27003KT 9000 SCT015 26/23 Q1006
VDSR 252300Z 27003KT 9000 SCT015 26/23 Q1006
VDSR 252230Z 29004KT 9000 SCT015 26/23 Q1006
VDSR 252200Z 26004KT 9000 SCT015 26/23 Q1006